Time;durP1;ratioP1;P1;durP2;ratioP2;P2;SDS_P1;SDS_P2;PMS_P1;PMS_P2;Temp;Humidity;BMP_temperature;BMP_pressure;BME280_temperature;BME280_humidity;BME280_pressure;Samples;Min_cycle;Max_cycle;Signal;HPM_P1;HPM_P2
2023/01/15 00:01:05;;;;;;;1.10;0.30;;;11.50;99.90;;;;;;5027437;28;20030;-78
2023/01/15 00:03:31;;;;;;;0.17;0.17;;;11.50;99.90;;;;;;5013566;28;20026;-78
2023/01/15 00:06:01;;;;;;;0.17;0.17;;;11.60;99.90;;;;;;5008778;28;20041;-78
2023/01/15 00:08:28;;;;;;;0.30;0.20;;;11.70;99.90;;;;;;4989714;28;20140;-79
2023/01/15 00:10:55;;;;;;;0.22;0.20;;;11.70;99.90;;;;;;5006882;28;20030;-78
2023/01/15 00:13:20;;;;;;;0.63;0.45;;;11.70;99.90;;;;;;4993189;28;20101;-78
2023/01/15 00:15:46;;;;;;;0.35;0.20;;;11.70;99.90;;;;;;5007911;28;20498;-78
2023/01/15 00:18:12;;;;;;;0.10;0.10;;;11.70;99.90;;;;;;5006202;28;20033;-78
2023/01/15 00:20:37;;;;;;;0.80;0.10;;;11.80;99.90;;;;;;5007035;28;20026;-78
2023/01/15 00:23:03;;;;;;;1.50;0.20;;;11.70;99.90;;;;;;5013384;28;20030;-77
2023/01/15 00:28:13;;;;;;;0.35;0.10;;;11.80;99.90;;;;;;5009224;28;20025;-80
2023/01/15 00:30:41;;;;;;;0.35;0.20;;;11.80;99.90;;;;;;5003577;28;20026;-80
2023/01/15 00:33:08;;;;;;;0.32;0.15;;;11.80;99.90;;;;;;5009960;28;20025;-80
2023/01/15 00:35:34;;;;;;;0.70;0.13;;;11.80;99.90;;;;;;5010074;28;20030;-80
2023/01/15 00:37:59;;;;;;;0.55;0.30;;;11.80;99.90;;;;;;5010512;28;20116;-81
2023/01/15 00:40:25;;;;;;;0.50;0.25;;;11.80;99.90;;;;;;5009658;28;20117;-80
2023/01/15 00:42:51;;;;;;;0.13;0.13;;;11.90;99.90;;;;;;5022242;23;20569;-72
2023/01/15 00:45:17;;;;;;;0.90;0.20;;;12.00;99.90;;;;;;5013010;28;20022;-72
2023/01/15 00:47:44;;;;;;;0.20;0.20;;;12.00;99.90;;;;;;5003819;28;20080;-74
2023/01/15 00:50:16;;;;;;;0.13;0.10;;;11.90;99.90;;;;;;4992891;28;20274;-74
2023/01/15 00:52:44;;;;;;;0.43;0.13;;;12.00;99.90;;;;;;5005854;28;20026;-73
2023/01/15 00:55:13;;;;;;;2.17;0.32;;;12.00;99.90;;;;;;4993207;28;20072;-74
2023/01/15 00:57:39;;;;;;;0.15;0.10;;;12.00;99.90;;;;;;5006811;28;20037;-75
2023/01/15 01:00:08;;;;;;;0.55;0.20;;;12.00;99.90;;;;;;4994304;28;20026;-75
2023/01/15 01:02:37;;;;;;;0.10;0.10;;;12.00;99.90;;;;;;5005863;28;20034;-76
2023/01/15 01:05:03;;;;;;;1.40;0.20;;;12.00;99.90;;;;;;4992603;28;20450;-75
2023/01/15 01:07:31;;;;;;;0.35;0.20;;;12.00;99.90;;;;;;4985154;28;20057;-75
2023/01/15 01:10:00;;;;;;;0.40;0.20;;;12.00;99.90;;;;;;5010643;28;20033;-75
2023/01/15 01:12:26;;;;;;;0.10;0.10;;;12.00;99.90;;;;;;5010446;28;20696;-76
2023/01/15 01:14:51;;;;;;;0.20;0.10;;;12.00;99.90;;;;;;5008123;28;20040;-75
2023/01/15 01:17:20;;;;;;;0.57;0.30;;;12.00;99.90;;;;;;5013253;28;20053;-75
2023/01/15 01:19:46;;;;;;;0.68;0.20;;;11.90;99.90;;;;;;5013407;28;20482;-75
2023/01/15 01:22:11;;;;;;;0.10;0.10;;;11.90;99.90;;;;;;4993865;28;20088;-76
2023/01/15 01:24:37;;;;;;;1.85;0.10;;;11.90;99.90;;;;;;5011043;28;20030;-75
2023/01/15 01:27:02;;;;;;;0.28;0.10;;;11.90;99.90;;;;;;4998388;28;20033;-75
2023/01/15 01:29:28;;;;;;;0.17;0.17;;;11.90;99.90;;;;;;5013743;28;20033;-76
2023/01/15 01:31:54;;;;;;;0.38;0.20;;;11.90;99.90;;;;;;5016899;28;20018;-76
2023/01/15 01:34:20;;;;;;;1.05;0.10;;;11.80;99.90;;;;;;5010142;28;20034;-76
2023/01/15 01:36:45;;;;;;;0.52;0.10;;;11.90;99.90;;;;;;5000317;28;20022;-76
2023/01/15 01:39:18;;;;;;;0.17;0.17;;;11.80;99.90;;;;;;5010088;28;20022;-76
2023/01/15 01:41:45;;;;;;;0.10;0.10;;;11.80;99.90;;;;;;5004385;28;20046;-75
2023/01/15 01:44:32;;;;;;;0.20;0.10;;;11.70;99.90;;;;;;5015414;28;20038;-76
2023/01/15 01:47:00;;;;;;;0.35;0.15;;;11.70;99.90;;;;;;5011059;28;20045;-76
2023/01/15 01:49:29;;;;;;;0.20;0.10;;;11.70;99.90;;;;;;5010192;28;20030;-76
2023/01/15 01:52:12;;;;;;;0.20;0.20;;;11.60;99.90;;;;;;5010136;28;20080;-76
2023/01/15 01:54:39;;;;;;;0.20;0.20;;;11.60;99.90;;;;;;5009066;28;20037;-75
2023/01/15 01:57:08;;;;;;;0.10;0.10;;;11.60;99.90;;;;;;5012634;28;20475;-75
2023/01/15 01:59:36;;;;;;;0.47;0.30;;;11.70;99.90;;;;;;4994453;28;20515;-75
2023/01/15 02:02:07;;;;;;;0.20;0.10;;;11.70;99.90;;;;;;4991550;28;20029;-75
2023/01/15 02:04:34;;;;;;;1.00;0.10;;;11.70;99.90;;;;;;5006407;28;20090;-75
2023/01/15 02:07:01;;;;;;;0.30;0.10;;;11.70;99.90;;;;;;5006372;28;20104;-75
2023/01/15 02:09:26;;;;;;;0.10;0.10;;;11.80;99.90;;;;;;5008119;28;20108;-75
2023/01/15 02:11:57;;;;;;;0.75;0.35;;;11.80;99.90;;;;;;5010251;28;20530;-75
2023/01/15 02:14:52;;;;;;;0.20;0.20;;;11.90;99.90;;;;;;5010523;28;20030;-75
2023/01/15 02:17:56;;;;;;;0.00;0.00;;;11.90;99.90;;;;;;4994028;28;20137;-75
2023/01/15 02:20:35;;;;;;;0.15;0.10;;;12.00;99.90;;;;;;4963703;28;20095;-75
2023/01/15 02:23:20;;;;;;;0.68;0.17;;;12.00;99.90;;;;;;4993394;28;20029;-76
2023/01/15 02:25:49;;;;;;;0.10;0.10;;;12.00;99.90;;;;;;5009074;28;20049;-75
2023/01/15 02:28:37;;;;;;;0.10;0.10;;;12.00;99.90;;;;;;5006300;28;20105;-75
2023/01/15 02:31:19;;;;;;;0.40;0.22;;;12.00;99.90;;;;;;4990859;28;20030;-75
2023/01/15 02:33:54;;;;;;;0.32;0.10;;;12.10;99.90;;;;;;4993888;28;20089;-75
2023/01/15 02:36:23;;;;;;;0.35;0.17;;;12.10;99.90;;;;;;5003675;28;20022;-75
2023/01/15 02:38:55;;;;;;;1.65;0.10;;;12.00;99.90;;;;;;5009477;28;20445;-75
2023/01/15 02:41:25;;;;;;;0.00;0.00;;;12.10;99.90;;;;;;5003794;28;20092;-75
2023/01/15 02:43:55;;;;;;;0.10;0.10;;;12.10;99.90;;;;;;5009120;28;20482;-75
2023/01/15 02:46:30;;;;;;;0.10;0.10;;;12.10;99.90;;;;;;5007373;28;20029;-75
2023/01/15 02:49:01;;;;;;;0.10;0.10;;;12.10;99.90;;;;;;5008974;28;20068;-75
2023/01/15 02:51:40;;;;;;;0.10;0.10;;;12.10;99.90;;;;;;5011433;28;20026;-75
2023/01/15 02:54:11;;;;;;;0.10;0.10;;;12.00;99.90;;;;;;4992603;28;20033;-75
2023/01/15 02:56:39;;;;;;;0.30;0.10;;;12.00;99.90;;;;;;4992634;28;20124;-76
2023/01/15 02:59:09;;;;;;;0.20;0.10;;;12.00;99.90;;;;;;5006126;28;20038;-75
2023/01/15 03:01:48;;;;;;;0.15;0.10;;;12.00;99.90;;;;;;4992547;28;20030;-75
2023/01/15 03:04:45;;;;;;;0.10;0.10;;;12.00;99.90;;;;;;4992505;28;20034;-75
2023/01/15 03:07:47;;;;;;;0.10;0.10;;;12.00;99.90;;;;;;4991064;28;20029;-75
2023/01/15 03:10:13;;;;;;;0.10;0.10;;;12.00;99.90;;;;;;4992763;28;20163;-75
2023/01/15 03:13:02;;;;;;;0.55;0.17;;;12.00;99.90;;;;;;4989794;28;20038;-75
2023/01/15 03:19:04;;;;;;;0.10;0.10;;;12.00;99.90;;;;;;5007348;28;20092;-75
2023/01/15 03:22:00;;;;;;;0.13;0.10;;;12.00;99.90;;;;;;5008902;28;20109;-75
2023/01/15 03:24:32;;;;;;;0.13;0.10;;;12.10;99.90;;;;;;4993399;28;20113;-75
2023/01/15 03:27:01;;;;;;;0.15;0.15;;;12.10;99.90;;;;;;5008578;28;20410;-75
2023/01/15 03:29:37;;;;;;;0.20;0.10;;;12.10;99.90;;;;;;4991640;28;20385;-76
2023/01/15 03:32:04;;;;;;;0.10;0.10;;;12.10;99.90;;;;;;5010360;28;20038;-75
2023/01/15 03:35:04;;;;;;;0.20;0.10;;;12.10;99.90;;;;;;4994880;28;20037;-75
2023/01/15 03:37:36;;;;;;;0.10;0.10;;;12.10;99.90;;;;;;5009487;28;20230;-75
2023/01/15 03:40:03;;;;;;;0.82;0.20;;;12.10;99.90;;;;;;4993568;28;20044;-76
2023/01/15 03:42:31;;;;;;;1.45;0.08;;;12.10;99.90;;;;;;5005192;28;20477;-75
2023/01/15 03:45:24;;;;;;;0.00;0.00;;;12.00;99.90;;;;;;5010624;28;20409;-75
2023/01/15 03:48:01;;;;;;;0.10;0.10;;;12.10;99.90;;;;;;5010477;28;20018;-75
2023/01/15 03:50:44;;;;;;;0.20;0.10;;;12.00;99.90;;;;;;4998897;28;20612;-75
2023/01/15 03:53:19;;;;;;;0.10;0.10;;;12.10;99.90;;;;;;4989976;28;20060;-75
2023/01/15 03:55:54;;;;;;;0.28;0.17;;;12.00;99.90;;;;;;4993127;28;20084;-75
2023/01/15 03:58:32;;;;;;;0.22;0.10;;;12.00;99.90;;;;;;4991621;28;21125;-75
2023/01/15 04:01:04;;;;;;;0.10;0.10;;;11.90;99.90;;;;;;5011377;28;20120;-75
2023/01/15 04:03:34;;;;;;;0.10;0.10;;;11.90;99.90;;;;;;4994197;28;20045;-75
2023/01/15 04:06:02;;;;;;;0.22;0.03;;;11.80;99.90;;;;;;5012228;28;20069;-75
2023/01/15 04:08:37;;;;;;;0.10;0.10;;;11.70;99.90;;;;;;5005601;28;20022;-75
2023/01/15 04:11:03;;;;;;;0.10;0.10;;;11.60;99.90;;;;;;5004331;28;20036;-75
2023/01/15 04:13:29;;;;;;;0.00;0.00;;;11.60;99.90;;;;;;5010204;28;20105;-75
2023/01/15 04:15:58;;;;;;;0.25;0.20;;;11.50;99.90;;;;;;4996531;28;20022;-76
2023/01/15 04:18:30;;;;;;;0.40;0.10;;;11.50;99.90;;;;;;5009812;28;20514;-75
2023/01/15 04:20:56;;;;;;;0.47;0.10;;;11.50;99.90;;;;;;5007028;28;20049;-76
2023/01/15 04:23:22;;;;;;;0.10;0.10;;;11.50;99.90;;;;;;5006860;28;20057;-76
2023/01/15 04:25:48;;;;;;;0.10;0.10;;;11.50;99.90;;;;;;5010185;28;20030;-75
2023/01/15 04:28:13;;;;;;;0.22;0.10;;;11.50;99.90;;;;;;5010724;28;20025;-76
2023/01/15 04:30:42;;;;;;;0.20;0.10;;;11.50;99.90;;;;;;5009480;28;20497;-76
2023/01/15 04:33:07;;;;;;;0.10;0.10;;;11.50;99.90;;;;;;4989623;28;20033;-75
2023/01/15 04:35:37;;;;;;;0.20;0.10;;;11.50;99.90;;;;;;5007249;28;20368;-75
2023/01/15 04:38:02;;;;;;;0.10;0.10;;;11.50;99.90;;;;;;5008126;28;20048;-75
2023/01/15 04:46:03;;;;;;;0.10;0.10;;;11.60;99.90;;;;;;5005917;28;20092;-75
2023/01/15 04:48:33;;;;;;;0.10;0.10;;;11.60;99.90;;;;;;5006082;28;20057;-75
2023/01/15 04:51:03;;;;;;;1.65;0.10;;;11.70;99.90;;;;;;5011698;28;20133;-75
2023/01/15 04:53:32;;;;;;;0.10;0.10;;;11.70;99.90;;;;;;5009496;28;20049;-75
2023/01/15 04:56:19;;;;;;;0.10;0.10;;;11.70;99.90;;;;;;5015868;28;20076;-75
2023/01/15 04:58:45;;;;;;;0.10;0.10;;;11.70;99.90;;;;;;5010970;28;20037;-75
2023/01/15 05:01:15;;;;;;;0.10;0.10;;;11.70;99.90;;;;;;4998297;28;20034;-75
2023/01/15 05:03:43;;;;;;;0.82;0.38;;;11.70;99.90;;;;;;5008645;28;20116;-75
2023/01/15 05:06:09;;;;;;;0.10;0.10;;;11.70;99.90;;;;;;5010915;28;20034;-75
2023/01/15 05:08:35;;;;;;;0.08;0.08;;;11.70;99.90;;;;;;5009590;28;20406;-75
2023/01/15 05:11:05;;;;;;;0.10;0.05;;;11.80;99.90;;;;;;5009530;28;20037;-75
2023/01/15 05:13:34;;;;;;;0.17;0.10;;;11.70;99.90;;;;;;5010689;28;20068;-75
2023/01/15 05:16:10;;;;;;;0.10;0.10;;;11.70;99.90;;;;;;5012407;28;20523;-75
2023/01/15 05:18:36;;;;;;;0.10;0.10;;;11.70;99.90;;;;;;5014747;28;20033;-75
2023/01/15 05:21:02;;;;;;;0.10;0.10;;;11.70;99.90;;;;;;4995799;28;20034;-75
2023/01/15 05:23:28;;;;;;;1.48;0.10;;;11.60;99.90;;;;;;5011272;28;20112;-75
2023/01/15 05:25:53;;;;;;;0.20;0.10;;;11.60;99.90;;;;;;5009657;28;20036;-75
2023/01/15 05:28:19;;;;;;;0.32;0.20;;;11.60;99.90;;;;;;5013769;28;20052;-75
2023/01/15 05:30:44;;;;;;;0.00;0.00;;;11.50;99.90;;;;;;5010660;28;20036;-74
2023/01/15 05:33:10;;;;;;;0.50;0.20;;;11.50;99.90;;;;;;4997313;28;20371;-76
2023/01/15 05:35:36;;;;;;;1.27;0.20;;;11.50;99.90;;;;;;4993972;28;20026;-75
2023/01/15 05:38:04;;;;;;;1.27;0.10;;;11.50;99.90;;;;;;5011155;28;20026;-75
2023/01/15 05:40:30;;;;;;;0.20;0.10;;;11.50;99.90;;;;;;4998243;28;20507;-75
2023/01/15 05:42:56;;;;;;;0.00;0.00;;;11.50;99.90;;;;;;5011258;28;20121;-75
2023/01/15 05:45:22;;;;;;;0.35;0.10;;;11.50;99.90;;;;;;5011584;28;20046;-76
2023/01/15 05:47:47;;;;;;;0.13;0.10;;;11.50;99.90;;;;;;4990914;28;20383;-75
2023/01/15 05:50:16;;;;;;;0.10;0.10;;;11.50;99.90;;;;;;5011786;28;20276;-75
2023/01/15 05:52:44;;;;;;;0.98;0.20;;;11.50;99.90;;;;;;5013090;28;20080;-76
2023/01/15 05:55:10;;;;;;;0.10;0.10;;;11.40;99.90;;;;;;4995242;28;20028;-75
2023/01/15 05:57:35;;;;;;;0.28;0.20;;;11.40;99.90;;;;;;4994800;28;20030;-76
2023/01/15 06:00:02;;;;;;;0.13;0.10;;;11.40;99.90;;;;;;4993894;28;20036;-75
2023/01/15 06:02:28;;;;;;;0.65;0.10;;;11.30;99.90;;;;;;5008272;28;20026;-75
2023/01/15 06:05:04;;;;;;;0.70;0.10;;;11.30;99.90;;;;;;5014257;28;20088;-75
2023/01/15 06:07:36;;;;;;;0.17;0.17;;;11.30;99.90;;;;;;5012971;28;20049;-75
2023/01/15 06:10:06;;;;;;;0.20;0.10;;;11.30;99.90;;;;;;4997098;28;20041;-75
2023/01/15 06:12:34;;;;;;;0.38;0.10;;;11.20;99.90;;;;;;4992368;28;20030;-75
2023/01/15 06:15:03;;;;;;;0.10;0.10;;;11.20;99.90;;;;;;5008237;28;20113;-75
2023/01/15 06:17:29;;;;;;;0.30;0.20;;;11.20;99.90;;;;;;5008667;28;20092;-76
2023/01/15 06:19:54;;;;;;;0.20;0.10;;;11.10;99.90;;;;;;4995168;28;20497;-76
2023/01/15 06:22:20;;;;;;;0.10;0.10;;;11.10;99.90;;;;;;4993768;28;20558;-74
2023/01/15 06:24:46;;;;;;;0.40;0.30;;;11.10;99.90;;;;;;5012514;28;20033;-74
2023/01/15 06:27:11;;;;;;;0.20;0.10;;;11.10;99.90;;;;;;5013815;28;20030;-74
2023/01/15 06:29:40;;;;;;;0.10;0.10;;;11.10;99.90;;;;;;5011702;28;20029;-75
2023/01/15 06:32:18;;;;;;;0.10;0.10;;;11.10;99.90;;;;;;5012417;28;20026;-74
2023/01/15 06:34:52;;;;;;;0.10;0.10;;;11.10;99.90;;;;;;5012460;28;20030;-75
2023/01/15 06:37:18;;;;;;;0.30;0.20;;;11.10;99.90;;;;;;5005359;28;20395;-74
2023/01/15 06:39:43;;;;;;;2.60;0.10;;;11.00;99.90;;;;;;5004462;28;20032;-74
2023/01/15 06:47:44;;;;;;;0.10;0.10;;;10.50;99.90;;;;;;5006867;28;19975;-76
2023/01/15 06:50:22;;;;;;;1.95;0.30;;;10.20;99.90;;;;;;4995174;28;20045;-75
2023/01/15 06:52:48;;;;;;;0.10;0.10;;;10.00;99.90;;;;;;5008386;28;20022;-75
2023/01/15 06:55:13;;;;;;;0.60;0.20;;;9.70;99.90;;;;;;5012825;28;20483;-75
2023/01/15 06:57:40;;;;;;;0.43;0.20;;;9.50;99.90;;;;;;4999390;23;21274;-78
2023/01/15 07:00:07;;;;;;;1.00;0.40;;;9.30;99.90;;;;;;4988293;28;20022;-77
2023/01/15 07:02:33;;;;;;;2.17;0.20;;;9.20;99.90;;;;;;4995389;28;20113;-78
2023/01/15 07:04:59;;;;;;;0.30;0.20;;;9.20;99.90;;;;;;4979111;28;20054;-77
2023/01/15 07:07:27;;;;;;;0.30;0.20;;;9.10;99.90;;;;;;4981507;28;20037;-78
2023/01/15 07:09:53;;;;;;;1.85;0.52;;;9.00;99.90;;;;;;4990952;28;20034;-79
2023/01/15 07:12:18;;;;;;;0.30;0.10;;;8.80;99.90;;;;;;4989121;28;20026;-79
2023/01/15 07:14:53;;;;;;;1.30;0.20;;;8.80;99.90;;;;;;4991326;28;20117;-78
2023/01/15 07:17:22;;;;;;;0.52;0.13;;;8.70;99.90;;;;;;4976374;28;20102;-78
2023/01/15 07:19:47;;;;;;;0.45;0.10;;;8.70;99.90;;;;;;4993768;28;20057;-78
2023/01/15 07:22:22;;;;;;;0.20;0.20;;;8.60;99.90;;;;;;4996148;28;20026;-78
2023/01/15 07:25:00;;;;;;;0.60;0.20;;;8.50;99.90;;;;;;4979312;28;20035;-78
2023/01/15 07:27:26;;;;;;;1.85;0.20;;;8.50;99.90;;;;;;4976250;28;20057;-79
2023/01/15 07:29:51;;;;;;;0.28;0.20;;;8.30;99.90;;;;;;4974616;28;20022;-78
2023/01/15 07:32:17;;;;;;;0.20;0.20;;;8.20;99.90;;;;;;4995455;28;20069;-78
2023/01/15 07:34:43;;;;;;;0.15;0.10;;;8.10;99.90;;;;;;4995894;28;20047;-79
2023/01/15 07:37:12;;;;;;;0.30;0.20;;;8.10;99.90;;;;;;4973119;28;20094;-78
2023/01/15 07:39:40;;;;;;;0.77;0.20;;;8.00;99.90;;;;;;4989846;28;20037;-78
2023/01/15 07:50:24;;;;;;;0.57;0.28;;;7.80;99.90;;;;;;4991717;28;20068;-77
2023/01/15 07:52:51;;;;;;;0.10;0.10;;;7.80;99.90;;;;;;4977703;28;20117;-78
2023/01/15 07:55:16;;;;;;;0.57;0.20;;;7.80;99.90;;;;;;4974629;28;20037;-78
2023/01/15 07:57:48;;;;;;;0.47;0.10;;;7.70;99.90;;;;;;4991849;28;20407;-77
2023/01/15 08:00:19;;;;;;;0.30;0.20;;;7.70;99.90;;;;;;4986729;28;20019;-78
2023/01/15 08:02:48;;;;;;;0.45;0.30;;;7.70;99.90;;;;;;4988269;28;20030;-77
2023/01/15 08:05:26;;;;;;;0.68;0.28;;;7.70;99.90;;;;;;4971589;28;20109;-78
2023/01/15 08:07:52;;;;;;;0.93;0.28;;;7.70;99.90;;;;;;4993061;28;20407;-78
2023/01/15 08:10:18;;;;;;;0.20;0.20;;;7.80;99.90;;;;;;4975408;28;20030;-79
2023/01/15 08:15:46;;;;;;;0.40;0.20;;;7.80;99.90;;;;;;4985594;28;20077;-79
2023/01/15 08:18:12;;;;;;;0.40;0.40;;;7.80;99.90;;;;;;4988619;28;20487;-78
2023/01/15 08:20:37;;;;;;;1.13;0.30;;;7.80;99.90;;;;;;4983317;28;20030;-79
2023/01/15 08:23:03;;;;;;;0.60;0.28;;;7.80;99.90;;;;;;4990128;28;20033;-78
2023/01/15 08:25:44;;;;;;;0.82;0.30;;;7.90;99.90;;;;;;4981499;28;20407;-78
2023/01/15 08:28:12;;;;;;;0.55;0.20;;;7.90;99.90;;;;;;4968720;28;20294;-80
2023/01/15 08:30:38;;;;;;;1.58;0.30;;;7.90;99.90;;;;;;4969662;28;20237;-78
2023/01/15 08:33:04;;;;;;;0.20;0.20;;;7.90;99.90;;;;;;4988103;28;20570;-78
2023/01/15 08:35:30;;;;;;;0.28;0.20;;;7.90;99.90;;;;;;4987946;28;20976;-78
2023/01/15 08:38:02;;;;;;;1.35;0.40;;;7.90;99.90;;;;;;4987743;28;20037;-78
2023/01/15 08:40:57;;;;;;;3.80;0.40;;;7.80;99.90;;;;;;4974647;28;20027;-80
2023/01/15 08:43:34;;;;;;;0.55;0.10;;;7.80;99.90;;;;;;4992590;28;20046;-79
2023/01/15 08:46:01;;;;;;;0.15;0.10;;;7.80;99.90;;;;;;4991028;28;20507;-81
2023/01/15 08:48:29;;;;;;;0.35;0.35;;;7.80;99.90;;;;;;4973314;28;20807;-80
2023/01/15 08:50:54;;;;;;;0.45;0.20;;;7.80;99.90;;;;;;4969597;28;20458;-81
2023/01/15 08:53:20;;;;;;;0.75;0.28;;;7.80;99.90;;;;;;4996006;28;20022;-81
2023/01/15 08:55:47;;;;;;;1.13;0.30;;;7.70;99.90;;;;;;4975193;28;20542;-80
2023/01/15 08:58:12;;;;;;;0.70;0.28;;;7.60;99.90;;;;;;4981143;28;20038;-81
2023/01/15 09:00:38;;;;;;;1.50;0.30;;;7.60;99.90;;;;;;4996701;28;20038;-80
2023/01/15 09:03:04;;;;;;;1.23;0.60;;;7.60;99.90;;;;;;4990746;28;20439;-80
2023/01/15 09:05:29;;;;;;;1.90;0.70;;;7.50;99.90;;;;;;4992147;28;20057;-81
2023/01/15 09:07:55;;;;;;;1.90;0.70;;;7.50;99.90;;;;;;4989296;28;20027;-79
2023/01/15 09:10:21;;;;;;;1.10;0.50;;;7.50;99.90;;;;;;4988231;28;20027;-80
2023/01/15 09:12:47;;;;;;;0.75;0.30;;;7.50;99.90;;;;;;4994999;28;20023;-80
2023/01/15 09:15:13;;;;;;;1.20;0.38;;;7.50;99.90;;;;;;4974311;28;20117;-78
2023/01/15 09:17:39;;;;;;;0.45;0.20;;;7.40;99.90;;;;;;4991636;28;20462;-79
2023/01/15 09:20:07;;;;;;;0.55;0.20;;;7.50;99.90;;;;;;4990023;28;20042;-78
2023/01/15 09:22:33;;;;;;;0.73;0.25;;;7.50;99.90;;;;;;4989132;28;20030;-79
2023/01/15 09:25:02;;;;;;;0.32;0.20;;;7.40;99.90;;;;;;4991157;28;20515;-79
2023/01/15 09:27:28;;;;;;;0.73;0.73;;;7.40;99.90;;;;;;4975254;28;20074;-78
2023/01/15 09:29:55;;;;;;;1.02;0.50;;;7.50;99.90;;;;;;4993257;28;20286;-79
2023/01/15 09:32:21;;;;;;;1.38;0.75;;;7.50;99.90;;;;;;4996619;28;20049;-79
2023/01/15 09:34:49;;;;;;;1.23;0.90;;;7.50;99.90;;;;;;4980470;28;20054;-78
2023/01/15 09:37:18;;;;;;;1.38;1.10;;;7.50;99.90;;;;;;4998986;28;20030;-78
2023/01/15 09:39:44;;;;;;;1.83;1.27;;;7.60;99.90;;;;;;4999573;28;20026;-78
2023/01/15 09:42:33;;;;;;;2.42;1.40;;;7.60;99.90;;;;;;4996493;28;20022;-78
2023/01/15 09:45:20;;;;;;;0.52;0.50;;;7.50;99.90;;;;;;4995281;28;20502;-78
2023/01/15 09:48:07;;;;;;;1.42;1.08;;;7.50;99.90;;;;;;4999058;28;20387;-78
2023/01/15 09:50:48;;;;;;;2.15;1.10;;;7.50;99.90;;;;;;4983752;28;20034;-78
2023/01/15 09:53:32;;;;;;;0.80;0.70;;;7.50;99.90;;;;;;4986963;28;20054;-79
2023/01/15 09:56:00;;;;;;;2.03;1.73;;;7.50;99.90;;;;;;5000193;28;20034;-78
2023/01/15 09:58:37;;;;;;;1.58;1.30;;;7.40;99.90;;;;;;4983819;28;20050;-79
2023/01/15 10:01:23;;;;;;;1.85;1.38;;;7.40;99.90;;;;;;4998667;28;20455;-79
2023/01/15 10:04:16;;;;;;;2.03;1.48;;;7.40;99.90;;;;;;4984975;28;20029;-79
2023/01/15 10:06:57;;;;;;;2.13;1.20;;;7.40;99.90;;;;;;5001373;28;20030;-79
2023/01/15 10:09:33;;;;;;;1.23;0.95;;;7.30;99.90;;;;;;4981440;28;20031;-79
2023/01/15 10:15:05;;;;;;;1.27;0.55;;;7.30;99.90;;;;;;5000125;28;20176;-79
2023/01/15 10:17:56;;;;;;;1.00;0.68;;;7.20;99.90;;;;;;4980127;28;20456;-79
2023/01/15 10:20:24;;;;;;;2.15;1.45;;;7.20;99.90;;;;;;5003406;28;20037;-79
2023/01/15 10:23:08;;;;;;;3.30;2.00;;;7.20;99.90;;;;;;5001903;28;20050;-79
2023/01/15 10:25:50;;;;;;;4.53;2.15;;;7.20;99.90;;;;;;5000165;28;20034;-79
2023/01/15 10:28:25;;;;;;;2.45;1.63;;;7.20;99.90;;;;;;4984778;28;20037;-79
2023/01/15 10:30:56;;;;;;;1.20;0.80;;;7.20;99.90;;;;;;4998161;28;20058;-78
2023/01/15 10:33:59;;;;;;;1.50;1.00;;;7.20;99.90;;;;;;4985188;28;20042;-79
2023/01/15 10:36:34;;;;;;;2.60;0.88;;;7.20;99.90;;;;;;4975687;28;20057;-78
2023/01/15 10:39:40;;;;;;;4.88;1.75;;;7.10;99.90;;;;;;4997761;28;20050;-78
2023/01/15 10:42:25;;;;;;;;;;;7.10;99.90;;;;;;4981291;28;20022;-78
2023/01/15 10:45:16;;;;;;;2.47;1.65;;;7.10;99.90;;;;;;5086372;23;20645;-80
2023/01/15 10:47:46;;;;;;;4.97;3.72;;;7.10;99.90;;;;;;4984902;28;20033;-79
2023/01/15 10:50:19;;;;;;;1.58;1.23;;;7.10;99.90;;;;;;4988014;28;20518;-79
2023/01/15 10:53:23;;;;;;;5.87;4.00;;;7.00;99.90;;;;;;5003326;28;20026;-80
2023/01/15 10:56:04;;;;;;;5.43;3.90;;;7.00;99.90;;;;;;4990288;28;20042;-79
2023/01/15 10:58:37;;;;;;;5.07;3.17;;;7.00;99.90;;;;;;4987398;28;20080;-80
2023/01/15 11:01:09;;;;;;;1.58;1.00;;;7.00;99.90;;;;;;4991349;28;20030;-80
2023/01/15 11:03:42;;;;;;;5.22;3.10;;;6.90;99.90;;;;;;4989097;28;20092;-80
2023/01/15 11:06:17;;;;;;;3.30;2.53;;;6.80;99.90;;;;;;4996049;28;20125;-79
2023/01/15 11:08:54;;;;;;;5.43;2.33;;;6.70;99.90;;;;;;4994745;28;20027;-80
2023/01/15 11:20:31;;;;;;;1.80;0.80;;;6.50;99.90;;;;;;4990375;28;20049;-80
2023/01/15 11:23:13;;;;;;;1.85;1.52;;;6.50;99.90;;;;;;4997853;28;20034;-80
2023/01/15 11:25:51;;;;;;;2.20;1.90;;;6.50;99.90;;;;;;5000974;28;20037;-80
2023/01/15 11:28:17;;;;;;;3.53;1.92;;;6.50;99.90;;;;;;4993924;28;20026;-80
2023/01/15 11:30:53;;;;;;;2.72;1.85;;;6.50;99.90;;;;;;4996297;28;20030;-79
2023/01/15 11:33:27;;;;;;;2.70;1.67;;;6.50;99.90;;;;;;4998034;28;20034;-79
2023/01/15 11:35:57;;;;;;;2.65;1.73;;;6.50;99.90;;;;;;5007842;28;20054;-79
2023/01/15 11:38:25;;;;;;;5.97;4.10;;;6.50;99.90;;;;;;5010365;28;20049;-79
2023/01/15 11:40:53;;;;;;;2.53;1.17;;;6.60;99.90;;;;;;5006100;28;20023;-79
2023/01/15 11:52:20;;;;;;;1.50;0.80;;;6.50;99.90;;;;;;4997154;28;20377;-79
2023/01/15 11:54:50;;;;;;;1.33;1.20;;;6.50;99.90;;;;;;5015941;28;20062;-79
2023/01/15 11:57:23;;;;;;;2.83;1.42;;;6.40;99.90;;;;;;4999885;28;20092;-80
2023/01/15 11:59:49;;;;;;;3.03;2.50;;;6.40;99.90;;;;;;4990647;28;20018;-79
2023/01/15 12:02:42;;;;;;;2.88;2.00;;;6.40;99.90;;;;;;5001272;28;20402;-81
2023/01/15 12:05:17;;;;;;;5.25;2.67;;;6.40;99.90;;;;;;4990156;28;20030;-82
2023/01/15 12:07:44;;;;;;;3.38;1.60;;;6.40;99.90;;;;;;5006419;28;20066;-80
2023/01/15 12:13:29;;;;;;;1.25;0.50;;;6.20;99.90;;;;;;5004389;28;20013;-80
2023/01/15 12:16:16;;;;;;;0.70;0.50;;;6.00;99.90;;;;;;4990805;28;20026;-80
2023/01/15 12:18:59;;;;;;;2.25;1.13;;;6.00;99.90;;;;;;4988441;28;20022;-80
2023/01/15 12:21:28;;;;;;;1.58;0.50;;;5.80;99.90;;;;;;5008900;28;20030;-80
2023/01/15 12:24:12;;;;;;;2.00;0.60;;;5.70;99.90;;;;;;4988082;28;20453;-79
2023/01/15 12:27:01;;;;;;;1.08;0.57;;;5.60;99.90;;;;;;4990829;28;20061;-80
2023/01/15 12:29:44;;;;;;;5.60;1.15;;;5.50;99.90;;;;;;5003551;28;20042;-80
2023/01/15 12:32:15;;;;;;;5.13;1.70;;;5.50;99.90;;;;;;4987840;28;20076;-80
2023/01/15 12:34:59;;;;;;;1.10;0.43;;;5.50;99.90;;;;;;4987614;28;20030;-80
2023/01/15 12:37:34;;;;;;;0.90;0.50;;;5.50;99.90;;;;;;4987992;28;20026;-80
2023/01/15 12:40:24;;;;;;;5.38;1.95;;;5.50;99.90;;;;;;4983006;28;20034;-79
2023/01/15 12:45:47;;;;;;;2.78;1.45;;;5.50;99.90;;;;;;4986986;28;20026;-79
2023/01/15 12:48:18;;;;;;;3.38;1.17;;;5.50;99.90;;;;;;4986450;28;20022;-80
2023/01/15 12:50:53;;;;;;;2.35;1.13;;;5.50;99.90;;;;;;4990962;28;20023;-81
2023/01/15 12:53:56;;;;;;;1.63;0.68;;;5.50;99.90;;;;;;4984107;28;20038;-81
2023/01/15 12:56:47;;;;;;;3.25;1.00;;;5.60;99.90;;;;;;4991107;28;20386;-81
2023/01/15 12:59:39;;;;;;;3.65;1.60;;;5.60;99.90;;;;;;4983340;28;20026;-79
2023/01/15 13:02:39;;;;;;;14.88;10.07;;;5.60;99.90;;;;;;4989145;28;20439;-80
2023/01/15 13:05:35;;;;;;;7.50;4.80;;;5.60;99.90;;;;;;4979276;28;20034;-79
2023/01/15 13:08:15;;;;;;;1.48;0.73;;;5.70;99.90;;;;;;4999073;28;20117;-79
2023/01/15 13:10:40;;;;;;;1.33;0.60;;;5.80;99.90;;;;;;4989649;28;20022;-78
2023/01/15 13:13:23;;;;;;;1.00;0.50;;;5.80;99.90;;;;;;5010556;23;20076;-79
2023/01/15 13:16:01;;;;;;;2.65;1.23;;;5.80;99.90;;;;;;5029078;28;20033;-79
2023/01/15 13:18:46;;;;;;;3.92;1.67;;;5.80;99.90;;;;;;5009945;28;20018;-79
2023/01/15 13:21:15;;;;;;;2.75;1.90;;;5.80;99.90;;;;;;5023913;28;20037;-79
2023/01/15 13:23:55;;;;;;;2.55;0.75;;;5.80;99.90;;;;;;5012456;28;20425;-79
2023/01/15 13:26:33;;;;;;;2.13;0.70;;;5.90;99.90;;;;;;5028901;28;20041;-78
2023/01/15 13:29:04;;;;;;;2.42;0.80;;;5.90;99.90;;;;;;5032251;28;20040;-78
2023/01/15 13:31:30;;;;;;;1.52;0.98;;;5.90;99.90;;;;;;5023896;28;20026;-77
2023/01/15 13:34:00;;;;;;;3.25;1.55;;;5.90;99.90;;;;;;5026081;28;20537;-78
2023/01/15 13:36:36;;;;;;;3.85;1.35;;;5.90;99.90;;;;;;5029319;28;20036;-78
2023/01/15 13:39:04;;;;;;;2.30;0.47;;;5.80;99.90;;;;;;5012546;28;20061;-76
2023/01/15 13:44:27;;;;;;;2.70;0.85;;;5.70;99.90;;;;;;5029164;28;20083;-76
2023/01/15 13:47:17;;;;;;;3.25;0.88;;;5.70;99.90;;;;;;5030465;28;20025;-75
2023/01/15 13:49:49;;;;;;;1.85;0.70;;;5.70;99.90;;;;;;5030850;28;20461;-77
2023/01/15 13:52:32;;;;;;;2.58;1.00;;;5.70;99.90;;;;;;5049512;28;20041;-78
2023/01/15 13:55:19;;;;;;;3.78;0.75;;;5.70;99.90;;;;;;5054124;28;20053;-77
2023/01/15 13:57:47;;;;;;;2.47;0.65;;;5.70;99.90;;;;;;5049269;28;20067;-77
2023/01/15 14:00:38;;;;;;;3.50;0.60;;;5.70;99.90;;;;;;5044405;28;20097;-76
2023/01/15 14:03:24;;;;;;;2.28;0.60;;;5.70;99.90;;;;;;5039452;28;20108;-77
2023/01/15 14:06:08;;;;;;;3.30;0.90;;;5.70;99.90;;;;;;5037209;28;20025;-78
2023/01/15 14:08:41;;;;;;;;;;;5.70;99.90;;;;;;5032826;28;20029;-78
2023/01/15 14:11:34;;;;;;;2.80;0.70;;;5.70;99.90;;;;;;5022042;28;20156;-78
2023/01/15 14:14:16;;;;;;;1.80;0.70;;;5.70;99.90;;;;;;5026562;28;20037;-77
2023/01/15 14:16:53;;;;;;;2.17;0.57;;;5.70;99.90;;;;;;5015331;28;20124;-78
2023/01/15 14:19:35;;;;;;;5.30;0.60;;;5.70;99.90;;;;;;5022832;28;20021;-78